createdAt,value
2023-01-21T00:01:55.918Z,66.00
2023-01-21T00:06:57.160Z,51.60
2023-01-21T00:11:55.276Z,37.60
2023-01-21T00:16:55.497Z,44.10
2023-01-21T00:21:53.705Z,44.80
2023-01-21T00:26:52.869Z,44.50
2023-01-21T00:31:53.193Z,39.30
2023-01-21T00:36:51.182Z,34.00
2023-01-21T00:41:50.357Z,29.60
2023-01-21T00:46:49.748Z,25.70
2023-01-21T00:51:49.766Z,23.50
2023-01-21T00:56:47.932Z,22.70
2023-01-21T01:01:48.223Z,20.80
2023-01-21T01:06:46.371Z,26.30
2023-01-21T01:11:45.706Z,32.10
2023-01-21T01:16:44.122Z,34.70
2023-01-21T01:21:45.199Z,25.60
2023-01-21T01:26:44.473Z,46.90
2023-01-21T01:31:42.774Z,34.90
2023-01-21T01:36:42.083Z,34.20
2023-01-21T01:41:41.388Z,35.10
2023-01-21T01:46:40.764Z,32.10
2023-01-21T01:51:39.961Z,30.60
2023-01-21T01:56:39.179Z,26.90
2023-01-21T02:01:38.491Z,23.50
2023-01-21T02:06:37.828Z,24.20
2023-01-21T02:11:36.918Z,22.70
2023-01-21T02:16:37.340Z,21.40
2023-01-21T02:21:36.458Z,20.40
2023-01-21T02:26:34.778Z,20.90
2023-01-21T02:31:33.113Z,19.80
2023-01-21T02:36:33.422Z,19.70
2023-01-21T02:41:33.713Z,19.30
2023-01-21T02:46:32.023Z,17.70
2023-01-21T02:51:32.305Z,17.70
2023-01-21T02:56:32.641Z,17.40
2023-01-21T03:01:29.922Z,17.80
2023-01-21T03:06:29.222Z,16.30
2023-01-21T03:11:28.493Z,15.40
2023-01-21T03:16:28.938Z,14.70
2023-01-21T03:21:28.061Z,13.90
2023-01-21T03:26:26.377Z,13.60
2023-01-21T03:31:25.640Z,13.90
2023-01-21T03:36:24.916Z,14.00
2023-01-21T03:41:25.242Z,14.30
2023-01-21T03:46:24.654Z,14.00
2023-01-21T03:51:22.778Z,12.60
2023-01-21T03:56:21.910Z,14.60
2023-01-21T04:01:21.099Z,13.20
2023-01-21T04:06:20.239Z,13.30
2023-01-21T04:11:19.523Z,12.90
2023-01-21T04:16:18.743Z,12.40
2023-01-21T04:21:17.937Z,12.90
2023-01-21T04:26:16.166Z,12.10
2023-01-21T04:31:17.442Z,12.70
2023-01-21T04:36:15.695Z,13.20
2023-01-21T04:41:14.883Z,13.20
2023-01-21T04:46:16.127Z,13.20
2023-01-21T04:51:14.397Z,12.10
2023-01-21T04:56:13.621Z,14.30
2023-01-21T05:01:11.870Z,14.00
2023-01-21T05:06:12.073Z,15.10
2023-01-21T05:11:11.272Z,15.10
2023-01-21T05:16:10.497Z,14.30
2023-01-21T05:21:09.729Z,14.70
2023-01-21T05:26:07.905Z,15.00
2023-01-21T05:31:07.215Z,14.80
2023-01-21T05:36:07.346Z,14.70
2023-01-21T05:41:05.536Z,14.50
2023-01-21T05:46:07.751Z,13.90
2023-01-21T05:51:05.973Z,15.10
2023-01-21T05:56:03.160Z,15.80
2023-01-21T06:01:02.341Z,16.30
2023-01-21T06:06:02.531Z,15.70
2023-01-21T06:11:01.783Z,15.10
2023-01-21T06:16:02.027Z,16.50
2023-01-21T06:21:00.204Z,14.80
2023-01-21T06:25:59.364Z,14.90
2023-01-21T06:30:58.652Z,15.60
2023-01-21T06:35:56.678Z,15.60
2023-01-21T06:40:55.869Z,14.60
2023-01-21T06:45:55.151Z,14.80
2023-01-21T06:50:54.401Z,12.70
2023-01-21T06:55:54.613Z,14.90
2023-01-21T07:00:54.797Z,14.00
2023-01-21T07:05:50.984Z,12.20
2023-01-21T07:10:51.258Z,14.10
2023-01-21T07:15:51.502Z,14.70
2023-01-21T07:20:49.676Z,14.10
2023-01-21T07:25:48.832Z,12.10
2023-01-21T07:30:49.044Z,13.10
2023-01-21T07:35:49.215Z,13.90
2023-01-21T07:40:46.407Z,15.50
2023-01-21T07:45:45.592Z,13.50
2023-01-21T07:50:44.821Z,15.30
2023-01-21T07:55:44.009Z,14.90
2023-01-21T08:00:43.186Z,14.60
2023-01-21T08:05:43.348Z,15.80
2023-01-21T08:10:41.558Z,15.00
2023-01-21T08:15:40.743Z,17.00
2023-01-21T08:20:39.928Z,15.00
2023-01-21T08:25:39.084Z,13.40
2023-01-21T08:30:38.296Z,13.60
2023-01-21T08:35:37.491Z,13.00
2023-01-21T08:40:37.675Z,13.20
2023-01-21T08:45:36.846Z,13.60
2023-01-21T08:50:35.019Z,9.60
2023-01-21T08:55:35.190Z,9.40
2023-01-21T09:00:33.341Z,12.70
2023-01-21T09:05:34.530Z,13.50
2023-01-21T09:10:31.728Z,15.70
2023-01-21T09:15:32.905Z,15.50
2023-01-21T09:20:29.115Z,11.10
2023-01-21T09:25:30.330Z,8.10
2023-01-21T09:30:28.520Z,15.20
2023-01-21T09:35:27.712Z,13.90
2023-01-21T09:40:26.908Z,10.00
2023-01-21T09:45:27.116Z,9.40
2023-01-21T09:50:25.339Z,9.10
2023-01-21T09:55:24.533Z,8.80
2023-01-21T10:00:24.759Z,7.00
2023-01-21T10:05:23.973Z,6.50
2023-01-21T10:10:22.139Z,6.00
2023-01-21T10:15:21.326Z,5.30
2023-01-21T10:20:20.496Z,4.90
2023-01-21T10:25:19.795Z,5.30
2023-01-21T10:30:19.858Z,5.20
2023-01-21T10:35:18.324Z,6.90
2023-01-21T10:40:17.279Z,13.80
2023-01-21T10:45:16.818Z,139.80
2023-01-21T10:50:14.806Z,200.00
2023-01-21T10:55:16.545Z,194.80
2023-01-21T11:00:14.303Z,177.60
2023-01-21T11:05:14.761Z,262.20
2023-01-21T11:10:12.948Z,227.70
2023-01-21T11:15:12.245Z,203.10
2023-01-21T11:20:11.578Z,161.30
2023-01-21T11:25:10.919Z,225.60
2023-01-21T11:30:26.076Z,196.70
2023-01-21T11:35:10.714Z,204.90
2023-01-21T11:40:09.537Z,194.20
2023-01-21T11:45:07.892Z,223.00
2023-01-21T11:50:07.070Z,273.20
2023-01-21T11:55:06.224Z,239.20
2023-01-21T12:00:05.374Z,271.10
2023-01-21T12:05:05.506Z,333.90
2023-01-21T12:10:04.895Z,315.40
2023-01-21T12:15:04.018Z,353.70
2023-01-21T12:20:03.201Z,302.40
2023-01-21T12:25:01.547Z,325.10
2023-01-21T12:30:00.655Z,166.80
2023-01-21T12:34:59.986Z,109.70
2023-01-21T12:40:01.317Z,106.90
2023-01-21T12:44:57.599Z,70.30
2023-01-21T12:49:57.946Z,45.70
2023-01-21T12:54:57.225Z,43.00
2023-01-21T12:59:56.552Z,31.50
2023-01-21T13:04:55.835Z,27.70
2023-01-21T13:09:56.218Z,25.20
2023-01-21T13:14:53.364Z,21.80
2023-01-21T13:19:53.657Z,22.30
2023-01-21T13:24:52.947Z,20.50
2023-01-21T13:29:51.252Z,19.00
2023-01-21T13:34:51.535Z,16.90
2023-01-21T13:39:50.863Z,17.70
2023-01-21T13:44:51.187Z,16.50
2023-01-21T13:49:49.697Z,16.40
2023-01-21T13:54:50.855Z,79.30
2023-01-21T13:59:48.184Z,74.30
2023-01-21T14:04:47.262Z,63.20
2023-01-21T14:09:46.589Z,85.00
2023-01-21T14:14:45.900Z,96.10
2023-01-21T14:19:45.206Z,81.10
2023-01-21T14:24:44.361Z,63.40
2023-01-21T14:29:44.878Z,47.60
2023-01-21T14:34:41.974Z,41.50
2023-01-21T14:39:42.208Z,32.70
2023-01-21T14:44:40.367Z,28.20
2023-01-21T14:49:42.563Z,119.60
2023-01-21T14:54:40.669Z,131.70
2023-01-21T14:59:40.942Z,102.00
2023-01-21T15:04:39.375Z,105.80
2023-01-21T15:09:37.717Z,100.70
2023-01-21T15:14:36.988Z,135.20
2023-01-21T15:19:36.851Z,133.70
2023-01-21T15:24:35.020Z,151.10
2023-01-21T15:29:34.205Z,139.50
2023-01-21T15:34:33.414Z,144.90
2023-01-21T15:39:33.867Z,79.10
2023-01-21T15:44:34.701Z,64.40
2023-01-21T15:49:31.400Z,82.60
2023-01-21T15:54:30.463Z,62.50
2023-01-21T15:59:30.633Z,59.90
2023-01-21T16:04:29.080Z,54.40
2023-01-21T16:09:28.107Z,53.90
2023-01-21T16:14:27.378Z,35.10
2023-01-21T16:19:26.560Z,39.60
2023-01-21T16:24:26.835Z,30.40
2023-01-21T16:29:25.335Z,26.40
2023-01-21T16:34:24.659Z,29.90
2023-01-21T16:39:24.988Z,22.10
2023-01-21T16:44:24.192Z,22.70
2023-01-21T16:49:23.262Z,24.10
2023-01-21T16:54:21.856Z,23.50
2023-01-21T16:59:20.708Z,20.00
2023-01-21T17:04:21.909Z,15.00
2023-01-21T17:09:20.148Z,15.90
2023-01-21T17:14:19.751Z,69.70
2023-01-21T17:19:18.000Z,81.50
2023-01-21T17:24:17.877Z,90.80
2023-01-21T17:29:17.043Z,55.00
2023-01-21T17:34:15.281Z,76.80
2023-01-21T17:39:15.600Z,94.00
2023-01-21T17:44:14.151Z,108.30
2023-01-21T17:49:13.855Z,82.30
2023-01-21T17:54:16.675Z,59.90
2023-01-21T17:59:11.764Z,47.40
2023-01-21T18:04:12.045Z,54.80
2023-01-21T18:09:11.385Z,47.40
2023-01-21T18:14:10.427Z,39.40
2023-01-21T18:19:09.589Z,31.50
2023-01-21T18:24:08.229Z,53.30
2023-01-21T18:29:08.248Z,106.60
2023-01-21T18:34:07.532Z,86.10
2023-01-21T18:39:05.744Z,160.50
2023-01-21T18:44:04.985Z,137.40
2023-01-21T18:49:05.325Z,63.60
2023-01-21T18:54:08.465Z,71.10
2023-01-21T18:59:02.907Z,39.50
2023-01-21T19:04:02.877Z,36.60
2023-01-21T19:09:01.592Z,28.10
2023-01-21T19:14:00.336Z,29.20
2023-01-21T19:18:59.679Z,78.00
2023-01-21T19:23:59.144Z,56.60
2023-01-21T19:29:01.671Z,94.70
2023-01-21T19:33:57.666Z,132.70
2023-01-21T19:38:59.096Z,80.80
2023-01-21T19:43:57.143Z,50.50
2023-01-21T19:48:55.476Z,64.50
2023-01-21T19:53:55.391Z,63.20
2023-01-21T19:58:53.788Z,41.90
2023-01-21T20:04:00.110Z,48.60
2023-01-21T20:08:52.150Z,32.40
2023-01-21T20:13:52.517Z,34.10
2023-01-21T20:18:50.720Z,34.40
2023-01-21T20:23:49.609Z,21.70
2023-01-21T20:28:50.107Z,27.40
2023-01-21T20:33:48.325Z,22.80
2023-01-21T20:38:48.455Z,19.30
2023-01-21T20:43:52.291Z,20.20
2023-01-21T20:48:47.886Z,19.90
2023-01-21T20:53:46.225Z,20.50
2023-01-21T20:58:45.166Z,19.60
2023-01-21T21:03:45.438Z,17.90
2023-01-21T21:08:42.612Z,20.40
2023-01-21T21:13:41.945Z,18.60
2023-01-21T21:18:42.438Z,18.60
2023-01-21T21:23:42.642Z,14.20
2023-01-21T21:28:39.549Z,17.80
2023-01-21T21:33:40.044Z,40.50
2023-01-21T21:38:38.219Z,83.60
2023-01-21T21:43:37.069Z,69.10
2023-01-21T21:48:36.259Z,58.40
2023-01-21T21:53:35.442Z,51.60
2023-01-21T21:58:34.933Z,39.30
2023-01-21T22:03:35.482Z,46.30
2023-01-21T22:08:33.214Z,31.70
2023-01-21T22:13:34.491Z,31.60
2023-01-21T22:18:32.658Z,94.30
2023-01-21T22:23:30.875Z,122.60
2023-01-21T22:28:31.053Z,115.70
2023-01-21T22:33:29.241Z,148.20
2023-01-21T22:38:27.432Z,122.10
2023-01-21T22:43:28.628Z,104.40
2023-01-21T22:48:26.806Z,95.20
2023-01-21T22:53:27.012Z,65.30
2023-01-21T22:58:25.196Z,84.40
2023-01-21T23:03:24.370Z,69.90
2023-01-21T23:08:23.547Z,55.70
2023-01-21T23:13:23.752Z,54.20
2023-01-21T23:18:22.936Z,48.30
2023-01-21T23:23:22.241Z,123.70
2023-01-21T23:28:21.411Z,108.90
2023-01-21T23:33:20.625Z,166.40
2023-01-21T23:38:19.343Z,186.00
2023-01-21T23:43:18.166Z,153.90
2023-01-21T23:48:17.368Z,132.90
2023-01-21T23:53:16.543Z,114.00
2023-01-21T23:58:15.725Z,96.00
